Time;durP1;ratioP1;P1;durP2;ratioP2;P2;SDS_P1;SDS_P2;PMS_P1;PMS_P2;Temp;Humidity;BMP_temperature;BMP_pressure;BME280_temperature;BME280_humidity;BME280_pressure;Samples;Min_cycle;Max_cycle;Signal;HPM_P1;HPM_P2
2022/09/27 00:00:57;;;;;;;;;;;20.20;99.90;;;;;;5030505;28;19936;-66
2022/09/27 00:03:24;;;;;;;;;;;20.20;99.90;;;;;;5030810;28;19929;-67
2022/09/27 00:06:04;;;;;;;;;;;20.20;99.90;;;;;;5031865;28;19932;-68
2022/09/27 00:08:32;;;;;;;;;;;20.20;99.90;;;;;;5048359;28;19929;-66
2022/09/27 00:11:03;;;;;;;;;;;20.20;99.90;;;;;;5045389;28;19940;-67
2022/09/27 00:13:31;;;;;;;;;;;20.20;99.90;;;;;;5045915;28;19924;-68
2022/09/27 00:15:59;;;;;;;;;;;20.10;99.90;;;;;;5048911;28;19924;-67
2022/09/27 00:18:27;;;;;;;;;;;20.10;99.90;;;;;;5030628;28;19929;-67
2022/09/27 00:20:54;;;;;;;;;;;20.20;99.90;;;;;;5049703;28;19940;-67
2022/09/27 00:23:21;;;;;;;;;;;20.10;99.90;;;;;;5044063;28;19928;-67
2022/09/27 00:25:55;;;;;;;;;;;20.10;99.90;;;;;;5027514;28;19925;-66
2022/09/27 00:28:22;;;;;;;;;;;20.10;99.90;;;;;;5042441;28;19925;-66
2022/09/27 00:30:50;;;;;;;;;;;20.10;99.90;;;;;;5045029;28;19940;-68
2022/09/27 00:33:17;;;;;;;;;;;20.10;99.90;;;;;;5045134;28;19929;-67
2022/09/27 00:35:45;;;;;;;;;;;20.10;99.90;;;;;;5030375;28;19929;-67
2022/09/27 00:38:12;;;;;;;;;;;20.10;99.90;;;;;;5044567;28;19928;-68
2022/09/27 00:40:39;;;;;;;;;;;20.10;99.90;;;;;;5048784;28;20004;-67
2022/09/27 00:43:16;;;;;;;;;;;20.10;99.90;;;;;;5050922;28;19932;-69
2022/09/27 00:45:48;;;;;;;;;;;20.10;99.90;;;;;;5038959;28;19932;-66
2022/09/27 00:48:17;;;;;;;;;;;20.10;99.90;;;;;;5060369;28;19936;-68
2022/09/27 00:50:45;;;;;;;;;;;20.10;99.90;;;;;;5051238;28;20160;-68
2022/09/27 00:53:32;;;;;;;;;;;20.10;99.90;;;;;;5031990;28;19932;-67
2022/09/27 00:56:05;;;;;;;;;;;20.10;99.90;;;;;;5026297;28;19932;-69
2022/09/27 00:58:34;;;;;;;;;;;20.10;99.90;;;;;;5029452;28;19935;-66
2022/09/27 01:01:04;;;;;;;;;;;20.10;99.90;;;;;;5029096;28;19929;-68
2022/09/27 01:03:44;;;;;;;;;;;20.10;99.90;;;;;;5046941;28;19944;-70
2022/09/27 01:06:11;;;;;;;;;;;20.10;99.90;;;;;;5043660;28;19929;-66
2022/09/27 01:08:38;;;;;;;;;;;20.10;99.90;;;;;;5044226;28;20719;-69
2022/09/27 01:11:05;;;;;;;;;;;20.10;99.90;;;;;;5026652;28;19928;-66
2022/09/27 01:13:37;;;;;;;;;;;20.00;99.90;;;;;;5047640;28;20444;-65
2022/09/27 01:16:17;;;;;;;;;;;20.00;99.90;;;;;;5027639;28;19929;-69
2022/09/27 01:18:57;;;;;;;;;;;20.00;99.90;;;;;;5039098;28;19936;-68
2022/09/27 01:21:41;;;;;;;;;;;20.00;99.90;;;;;;5025766;28;19929;-67
2022/09/27 01:24:18;;;;;;;;;;;20.00;99.90;;;;;;5047625;28;19928;-67
2022/09/27 01:26:52;;;;;;;;;;;20.00;99.90;;;;;;5029860;28;20553;-67
2022/09/27 01:29:25;;;;;;;;;;;20.00;99.90;;;;;;5026658;28;19925;-68
2022/09/27 01:32:06;;;;;;;;;;;20.00;99.90;;;;;;5044479;28;19925;-67
2022/09/27 01:34:45;;;;;;;;;;;20.00;99.90;;;;;;5035219;28;19929;-67
2022/09/27 01:37:18;;;;;;;;;;;20.00;99.90;;;;;;5029224;28;19932;-68
2022/09/27 01:39:49;;;;;;;;;;;20.00;99.90;;;;;;5005786;28;19924;-66
2022/09/27 01:42:56;;;;;;;;;;;20.00;99.90;;;;;;5038995;28;19932;-65
2022/09/27 01:45:32;;;;;;;;;;;20.00;99.90;;;;;;5029858;28;19936;-66
2022/09/27 01:48:14;;;;;;;;;;;20.00;99.90;;;;;;5029533;28;19925;-67
2022/09/27 01:51:04;;;;;;;;;;;20.00;99.90;;;;;;5029985;28;20483;-67
2022/09/27 01:53:39;;;;;;;;;;;20.00;99.90;;;;;;5029096;28;20400;-68
2022/09/27 01:56:26;;;;;;;;;;;19.90;99.90;;;;;;5028535;28;19929;-68
2022/09/27 01:59:07;;;;;;;;;;;19.90;99.90;;;;;;5029770;28;19924;-67
2022/09/27 02:01:35;;;;;;;;;;;20.00;99.90;;;;;;5030741;28;20387;-66
2022/09/27 02:04:05;;;;;;;;;;;20.00;99.90;;;;;;5026261;28;19925;-69
2022/09/27 02:06:38;;;;;;;;;;;20.00;99.90;;;;;;5034679;28;19936;-66
2022/09/27 02:09:41;;;;;;;;;;;20.00;99.90;;;;;;5026377;28;19932;-67
2022/09/27 02:12:20;;;;;;;;;;;20.00;99.90;;;;;;5023327;28;19929;-70
2022/09/27 02:14:55;;;;;;;;;;;20.00;99.90;;;;;;5027795;28;20431;-67
2022/09/27 02:17:41;;;;;;;;;;;20.00;99.90;;;;;;5025862;28;20309;-68
2022/09/27 02:20:28;;;;;;;;;;;19.90;99.90;;;;;;5028300;28;19928;-70
2022/09/27 02:23:01;;;;;;;;;;;19.90;99.90;;;;;;5028748;28;19936;-69
2022/09/27 02:25:42;;;;;;;;;;;20.00;99.90;;;;;;5048350;28;19936;-68
2022/09/27 02:28:25;;;;;;;;;;;19.90;99.90;;;;;;5029766;28;19940;-68
2022/09/27 02:30:53;;;;;;;;;;;19.90;99.90;;;;;;5042308;28;19924;-68
2022/09/27 02:33:47;;;;;;;;;;;19.90;99.90;;;;;;5032683;28;19952;-67
2022/09/27 02:36:14;;;;;;;;;;;19.90;99.90;;;;;;5014616;28;19936;-66
2022/09/27 02:38:42;;;;;;;;;;;19.90;99.90;;;;;;5031141;28;19932;-67
2022/09/27 02:41:17;;;;;;;;;;;19.90;99.90;;;;;;5027883;28;19936;-67
2022/09/27 02:43:47;;;;;;;;;;;19.90;99.90;;;;;;5009596;28;20393;-68
2022/09/27 02:46:17;;;;;;;;;;;19.90;99.90;;;;;;5025831;28;20407;-67
2022/09/27 02:49:00;;;;;;;;;;;19.90;99.90;;;;;;5032214;28;20676;-68
2022/09/27 02:51:28;;;;;;;;;;;19.90;99.90;;;;;;5031782;28;19940;-68
2022/09/27 02:54:02;;;;;;;;;;;19.90;99.90;;;;;;5028231;28;19940;-66
2022/09/27 02:56:58;;;;;;;;;;;19.90;99.90;;;;;;5003301;28;19932;-68
2022/09/27 03:00:08;;;;;;;;;;;19.90;99.90;;;;;;4981295;28;19934;-68
2022/09/27 03:03:10;;;;;;;;;;;19.90;99.90;;;;;;5029102;28;19939;-66
2022/09/27 03:05:58;;;;;;;;;;;19.90;99.90;;;;;;5044953;28;19936;-68
2022/09/27 03:08:25;;;;;;;;;;;19.90;99.90;;;;;;5030480;28;19929;-68
2022/09/27 03:10:52;;;;;;;;;;;19.90;99.90;;;;;;5031895;28;19924;-68
2022/09/27 03:13:20;;;;;;;;;;;19.90;99.90;;;;;;5005703;28;20429;-68
2022/09/27 03:15:47;;;;;;;;;;;19.90;99.90;;;;;;5031224;28;19924;-69
2022/09/27 03:18:16;;;;;;;;;;;19.90;99.90;;;;;;5029448;28;20643;-70
2022/09/27 03:20:53;;;;;;;;;;;19.90;99.90;;;;;;5055912;28;19999;-68
2022/09/27 03:23:24;;;;;;;;;;;19.90;99.90;;;;;;5008819;28;19936;-68
2022/09/27 03:25:52;;;;;;;;;;;19.80;99.90;;;;;;5027953;28;19959;-68
2022/09/27 03:28:19;;;;;;;;;;;19.90;99.90;;;;;;5014479;28;20392;-68
2022/09/27 03:30:47;;;;;;;;;;;19.80;99.90;;;;;;5030669;28;19925;-70
2022/09/27 03:33:34;;;;;;;;;;;19.80;99.90;;;;;;5041804;28;19924;-68
2022/09/27 03:36:06;;;;;;;;;;;19.80;99.90;;;;;;5011555;28;20070;-66
2022/09/27 03:38:34;;;;;;;;;;;19.80;99.90;;;;;;5041958;28;19925;-66
2022/09/27 03:41:01;;;;;;;;;;;19.80;99.90;;;;;;5031127;28;19933;-67
2022/09/27 03:43:29;;;;;;;;;;;19.80;99.90;;;;;;5030423;28;19928;-68
2022/09/27 03:46:00;;;;;;;;;;;19.80;99.90;;;;;;5020808;28;19928;-68
2022/09/27 03:48:30;;;;;;;;;;;19.80;99.90;;;;;;5044485;28;19932;-68
2022/09/27 03:50:57;;;;;;;;;;;19.80;99.90;;;;;;5048857;28;19936;-67
2022/09/27 03:53:24;;;;;;;;;;;19.80;99.90;;;;;;5009553;28;19951;-68
2022/09/27 03:55:51;;;;;;;;;;;19.80;99.90;;;;;;5022536;28;19932;-68
2022/09/27 03:58:18;;;;;;;;;;;19.90;99.90;;;;;;5031290;28;19925;-68
2022/09/27 04:00:46;;;;;;;;;;;20.00;99.90;;;;;;5030271;28;20431;-69
2022/09/27 04:03:14;;;;;;;;;;;20.10;99.90;;;;;;5036786;28;19932;-66
2022/09/27 04:06:10;;;;;;;;;;;20.30;99.90;;;;;;5034548;28;19929;-66
2022/09/27 04:08:41;;;;;;;;;;;20.50;99.90;;;;;;5030710;28;19944;-67
2022/09/27 04:11:10;;;;;;;;;;;20.70;99.90;;;;;;5030644;28;20396;-68
2022/09/27 04:13:39;;;;;;;;;;;20.80;99.90;;;;;;5030262;28;20568;-68
2022/09/27 04:16:07;;;;;;;;;;;21.00;99.90;;;;;;5029999;28;19925;-68
2022/09/27 04:19:09;;;;;;;;;;;21.10;99.90;;;;;;5026089;28;20042;-69
2022/09/27 04:21:37;;;;;;;;;;;21.20;99.90;;;;;;5041019;28;19925;-69
2022/09/27 04:24:06;;;;;;;;;;;21.20;99.90;;;;;;5039768;28;20409;-69
2022/09/27 04:26:34;;;;;;;;;;;21.30;99.90;;;;;;5025215;28;20304;-69
2022/09/27 04:29:08;;;;;;;;;;;21.20;99.90;;;;;;5027244;28;19932;-66
2022/09/27 04:31:38;;;;;;;;;;;21.20;99.90;;;;;;5030301;28;19943;-67
2022/09/27 04:37:22;;;;;;;;;;;21.20;99.90;;;;;;5024313;28;19936;-66
2022/09/27 04:39:53;;;;;;;;;;;21.30;99.90;;;;;;5024963;28;19936;-67
2022/09/27 04:42:20;;;;;;;;;;;21.20;99.90;;;;;;5009879;28;19936;-68
2022/09/27 04:44:48;;;;;;;;;;;21.30;99.90;;;;;;5030333;28;19928;-65
2022/09/27 04:47:16;;;;;;;;;;;21.20;99.90;;;;;;5029864;28;20432;-67
2022/09/27 04:49:43;;;;;;;;;;;21.30;99.90;;;;;;5041604;28;20622;-67
2022/09/27 04:52:10;;;;;;;;;;;21.20;99.90;;;;;;5028130;28;19928;-68
2022/09/27 04:54:37;;;;;;;;;;;21.20;99.90;;;;;;5029846;28;19932;-67
2022/09/27 04:57:11;;;;;;;;;;;21.20;99.90;;;;;;5022255;28;19935;-68
2022/09/27 04:59:40;;;;;;;;;;;21.20;99.90;;;;;;5049638;28;19936;-65
2022/09/27 05:02:08;;;;;;;;;;;21.10;99.90;;;;;;5030606;28;20188;-66
2022/09/27 05:04:57;;;;;;;;;;;21.10;99.90;;;;;;5053637;28;19928;-67
2022/09/27 05:07:27;;;;;;;;;;;21.10;99.90;;;;;;5027765;28;19928;-69
2022/09/27 05:10:00;;;;;;;;;;;21.00;99.90;;;;;;5042532;28;19929;-67
2022/09/27 05:12:28;;;;;;;;;;;21.00;99.90;;;;;;5040937;28;19940;-68
2022/09/27 05:14:58;;;;;;;;;;;21.00;99.90;;;;;;5035576;28;20404;-69
2022/09/27 05:17:40;;;;;;;;;;;21.00;99.90;;;;;;5050295;28;19940;-68
2022/09/27 05:20:25;;;;;;;;;;;21.10;99.90;;;;;;5052671;28;20432;-69
2022/09/27 05:22:58;;;;;;;;;;;21.10;99.90;;;;;;5027087;28;19932;-66
2022/09/27 05:25:25;;;;;;;;;;;21.10;99.90;;;;;;5029964;28;19929;-69
2022/09/27 05:27:52;;;;;;;;;;;21.10;99.90;;;;;;5028700;28;19929;-67
2022/09/27 05:30:20;;;;;;;;;;;21.00;99.90;;;;;;5027692;28;20251;-67
2022/09/27 05:32:52;;;;;;;;;;;21.00;99.90;;;;;;5029146;28;20289;-69
2022/09/27 05:35:25;;;;;;;;;;;20.90;99.90;;;;;;5037626;28;19929;-67
2022/09/27 05:37:53;;;;;;;;;;;21.00;99.90;;;;;;5029451;28;19929;-68
2022/09/27 05:40:24;;;;;;;;;;;21.00;99.90;;;;;;5027933;28;20356;-69
2022/09/27 05:43:10;;;;;;;;;;;21.00;99.90;;;;;;5028211;28;19929;-68
2022/09/27 05:45:37;;;;;;;;;;;21.00;99.90;;;;;;5037821;28;19925;-68
2022/09/27 05:48:06;;;;;;;;;;;21.00;99.90;;;;;;5025029;28;19928;-71
2022/09/27 05:50:41;;;;;;;;;;;21.00;99.90;;;;;;5028667;28;19929;-67
2022/09/27 05:53:10;;;;;;;;;;;21.10;99.90;;;;;;5031390;28;19929;-66
2022/09/27 05:55:37;;;;;;;;;;;21.00;99.90;;;;;;5047235;28;19924;-69
2022/09/27 05:58:06;;;;;;;;;;;21.10;99.90;;;;;;5032277;28;20404;-67
2022/09/27 06:00:42;;;;;;;;;;;21.10;99.90;;;;;;5028820;28;19936;-70
2022/09/27 06:03:29;;;;;;;;;;;21.10;99.90;;;;;;5050889;28;19929;-69
2022/09/27 06:06:35;;;;;;;;;;;21.00;99.90;;;;;;5049327;28;19939;-69
2022/09/27 06:09:04;;;;;;;;;;;21.00;99.90;;;;;;5033238;28;19944;-66
2022/09/27 06:11:31;;;;;;;;;;;21.00;99.90;;;;;;5030700;28;19929;-69
2022/09/27 06:13:59;;;;;;;;;;;21.00;99.90;;;;;;5026854;28;19936;-66
2022/09/27 06:16:30;;;;;;;;;;;21.00;99.90;;;;;;5014292;28;19929;-66
2022/09/27 06:18:59;;;;;;;;;;;21.00;99.90;;;;;;5029842;28;19925;-65
2022/09/27 06:21:27;;;;;;;;;;;21.00;99.90;;;;;;5026970;28;19929;-66
2022/09/27 06:23:58;;;;;;;;;;;20.90;99.90;;;;;;5029695;28;19941;-68
2022/09/27 06:26:32;;;;;;;;;;;20.90;99.90;;;;;;5028377;28;20400;-70
2022/09/27 06:29:13;;;;;;;;;;;20.90;99.90;;;;;;5012534;28;19929;-67
2022/09/27 06:31:50;;;;;;;;;;;20.90;99.90;;;;;;5025834;28;19930;-66
2022/09/27 06:34:26;;;;;;;;;;;20.80;99.90;;;;;;5021886;28;19929;-66
2022/09/27 06:36:54;;;;;;;;;;;20.80;99.90;;;;;;5010996;28;20408;-68
2022/09/27 06:39:21;;;;;;;;;;;20.80;99.90;;;;;;5029734;28;19929;-69
2022/09/27 06:42:01;;;;;;;;;;;20.80;99.90;;;;;;5010948;28;19936;-68
2022/09/27 06:44:48;;;;;;;;;;;20.80;99.90;;;;;;5034966;28;19929;-68
2022/09/27 06:47:35;;;;;;;;;;;20.80;99.90;;;;;;5024242;28;20323;-69
2022/09/27 06:50:21;;;;;;;;;;;19.90;99.90;;;;;;5030973;28;19944;-69
2022/09/27 06:52:49;;;;;;;;;;;19.30;99.90;;;;;;5029311;28;19925;-69
2022/09/27 06:55:17;;;;;;;;;;;19.40;99.90;;;;;;5027703;28;19936;-67
2022/09/27 07:00:30;;;;;;;;;;;19.80;99.90;;;;;;5040308;28;19929;-67
2022/09/27 07:03:22;;;;;;;;;;;19.90;99.90;;;;;;5026582;28;20297;-67
2022/09/27 07:06:00;;;;;;;;;;;19.90;99.90;;;;;;5026396;28;19929;-65
2022/09/27 07:08:39;;;;;;;;;;;19.90;99.90;;;;;;5025367;28;19943;-65
2022/09/27 07:11:06;;;;;;;;;;;19.90;99.90;;;;;;5028307;28;19929;-67
2022/09/27 07:13:39;;;;;;;;;;;20.00;99.90;;;;;;5035463;28;19940;-69
2022/09/27 07:16:06;;;;;;;;;;;20.00;99.90;;;;;;5037047;28;20472;-69
2022/09/27 07:18:33;;;;;;;;;;;20.10;99.90;;;;;;5050317;28;20408;-69
2022/09/27 07:21:01;;;;;;;;;;;20.20;99.90;;;;;;5058791;28;19936;-69
2022/09/27 07:23:29;;;;;;;;;;;20.30;99.90;;;;;;5037412;28;20247;-66
2022/09/27 07:26:03;;;;;;;;;;;20.50;99.90;;;;;;5017770;28;19929;-66
2022/09/27 07:28:30;;;;;;;;;;;20.50;99.90;;;;;;5033172;28;19944;-68
2022/09/27 07:30:58;;;;;;;;;;;20.60;99.90;;;;;;5020066;28;19925;-66
2022/09/27 07:33:25;;;;;;;;;;;20.70;99.90;;;;;;5009378;28;19931;-67
2022/09/27 07:35:53;;;;;;;;;;;20.60;99.90;;;;;;5047929;28;19925;-69
2022/09/27 07:38:20;;;;;;;;;;;20.70;99.90;;;;;;5033666;28;20267;-66
2022/09/27 07:40:47;;;;;;;;;;;20.70;99.90;;;;;;5019937;28;19929;-69
2022/09/27 07:43:15;;;;;;;;;;;20.70;99.90;;;;;;5033895;28;19928;-67
2022/09/27 07:45:42;;;;;;;;;;;20.60;99.90;;;;;;5032590;28;19931;-68
2022/09/27 07:48:33;;;;;;;;;;;20.60;99.90;;;;;;5043239;28;19928;-66
2022/09/27 07:51:10;;;;;;;;;;;20.60;99.90;;;;;;5031960;28;19929;-70
2022/09/27 07:53:50;;;;;;;;;;;20.50;99.90;;;;;;5045432;28;19951;-68
2022/09/27 07:56:35;;;;;;;;;;;20.60;99.90;;;;;;5071553;28;19925;-66
2022/09/27 07:59:04;;;;;;;;;;;20.50;99.90;;;;;;5043875;28;19929;-66
2022/09/27 08:01:33;;;;;;;;;;;20.60;99.90;;;;;;5055630;23;19939;-63
2022/09/27 08:04:00;;;;;;;;;;;20.50;99.90;;;;;;5021904;28;20145;-64
2022/09/27 08:06:28;;;;;;;;;;;20.60;99.90;;;;;;5004994;28;19955;-67
2022/09/27 08:08:57;;;;;;;;;;;20.70;99.90;;;;;;5036620;28;19929;-66
2022/09/27 08:11:26;;;;;;;;;;;20.80;99.90;;;;;;5008330;28;19936;-67
2022/09/27 08:13:55;;;;;;;;;;;21.00;99.90;;;;;;5002228;28;20397;-67
2022/09/27 08:16:27;;;;;;;;;;;21.10;99.90;;;;;;5017099;28;19932;-67
2022/09/27 08:19:15;;;;;;;;;;;21.30;99.90;;;;;;5005196;28;20212;-66
2022/09/27 08:22:01;;;;;;;;;;;21.40;99.90;;;;;;5020989;28;19933;-67
2022/09/27 08:24:35;;;;;;;;;;;21.60;99.90;;;;;;5004562;28;19930;-68
2022/09/27 08:27:03;;;;;;;;;;;21.60;99.90;;;;;;5023471;28;20755;-66
2022/09/27 08:29:57;;;;;;;;;;;21.70;99.90;;;;;;5006552;28;19956;-66
2022/09/27 08:32:24;;;;;;;;;;;21.80;99.90;;;;;;4987835;28;19932;-66
2022/09/27 08:34:52;;;;;;;;;;;21.90;99.90;;;;;;4999112;28;19929;-65
2022/09/27 08:37:21;;;;;;;;;;;21.90;99.90;;;;;;4993130;28;19944;-65
2022/09/27 08:39:49;;;;;;;;;;;21.90;99.90;;;;;;5025876;28;19956;-65
2022/09/27 08:42:27;;;;;;;;;;;22.00;99.90;;;;;;5020831;28;19966;-65
2022/09/27 08:45:00;;;;;;;;;;;22.00;99.90;;;;;;5023000;28;19932;-67
2022/09/27 08:47:44;;;;;;;;;;;22.00;99.90;;;;;;4997402;28;19962;-67
2022/09/27 08:50:33;;;;;;;;;;;22.00;99.90;;;;;;5010586;28;20421;-66
2022/09/27 08:53:13;;;;;;;;;;;22.00;99.90;;;;;;5024356;28;19944;-63
2022/09/27 08:56:02;;;;;;;;;;;21.90;99.90;;;;;;5011185;28;19949;-65
2022/09/27 08:58:36;;;;;;;;;;;21.90;99.90;;;;;;5002707;28;19932;-64
2022/09/27 09:01:11;;;;;;;;;;;21.90;99.90;;;;;;5001063;28;19944;-64
2022/09/27 09:03:47;;;;;;;;;;;21.90;99.90;;;;;;5003049;28;19929;-63
2022/09/27 09:06:17;;;;;;;;;;;21.90;99.90;;;;;;5020318;28;19929;-65
2022/09/27 09:08:59;;;;;;;;;;;21.80;99.90;;;;;;5018010;28;20420;-64
2022/09/27 09:14:30;;;;;;;;;;;21.80;99.90;;;;;;5025391;28;19932;-65
2022/09/27 09:17:02;;;;;;;;;;;21.80;99.90;;;;;;4996632;28;19929;-64
2022/09/27 09:19:55;;;;;;;;;;;21.80;99.90;;;;;;5004728;28;19925;-64
2022/09/27 09:22:41;;;;;;;;;;;21.80;99.90;;;;;;5022045;28;19957;-64
2022/09/27 09:25:20;;;;;;;;;;;21.70;99.90;;;;;;5011118;28;19925;-63
2022/09/27 09:28:23;;;;;;;;;;;21.70;99.90;;;;;;5023117;28;19933;-64
2022/09/27 09:30:50;;;;;;;;;;;21.70;99.90;;;;;;4952907;28;19930;-63
2022/09/27 09:33:22;;;;;;;;;;;21.70;99.90;;;;;;5001843;28;20305;-63
2022/09/27 09:35:54;;;;;;;;;;;21.70;99.90;;;;;;5001810;28;19936;-64
2022/09/27 09:38:23;;;;;;;;;;;21.60;99.90;;;;;;5027400;28;20340;-63
2022/09/27 09:40:53;;;;;;;;;;;21.60;99.90;;;;;;5011364;28;19929;-62
2022/09/27 09:43:26;;;;;;;;;;;21.60;99.90;;;;;;5020222;28;20622;-63
2022/09/27 09:46:01;;;;;;;;;;;21.50;99.90;;;;;;5021878;28;19937;-64
2022/09/27 09:48:32;;;;;;;;;;;21.60;99.90;;;;;;4999562;28;19930;-63
2022/09/27 09:51:01;;;;;;;;;;;21.50;99.90;;;;;;5008198;28;19940;-63
2022/09/27 09:53:43;;;;;;;;;;;21.50;99.90;;;;;;5008562;28;19933;-62
2022/09/27 09:56:14;;;;;;;;;;;21.50;99.90;;;;;;5001969;28;19936;-63
2022/09/27 09:59:11;;;;;;;;;;;21.40;99.90;;;;;;5029583;28;20400;-63
2022/09/27 10:01:42;;;;;;;;;;;21.40;99.90;;;;;;4959396;28;19936;-63
2022/09/27 10:04:15;;;;;;;;;;;21.40;99.90;;;;;;5020318;28;19937;-62
2022/09/27 10:06:42;;;;;;;;;;;21.40;99.90;;;;;;5015203;28;19937;-62
2022/09/27 10:09:14;;;;;;;;;;;21.40;99.90;;;;;;4997039;28;19940;-63
2022/09/27 10:12:04;;;;;;;;;;;21.40;99.90;;;;;;5021460;28;19932;-64
2022/09/27 10:14:32;;;;;;;;;;;21.40;99.90;;;;;;5010513;28;19933;-64
2022/09/27 10:17:05;;;;;;;;;;;21.40;99.90;;;;;;5021214;28;19930;-64
2022/09/27 10:19:34;;;;;;;;;;;21.40;99.90;;;;;;4995326;28;19936;-64
2022/09/27 10:22:22;;;;;;;;;;;21.40;99.90;;;;;;5022469;28;19972;-63
2022/09/27 10:25:03;;;;;;;;;;;21.40;99.90;;;;;;5017466;28;19937;-64
2022/09/27 10:27:54;;;;;;;;;;;21.40;99.90;;;;;;5015614;28;19930;-64
2022/09/27 10:30:31;;;;;;;;;;;21.30;99.90;;;;;;4995566;28;19936;-63
2022/09/27 10:33:06;;;;;;;;;;;21.40;99.90;;;;;;4997731;28;19929;-63
2022/09/27 10:35:44;;;;;;;;;;;21.40;99.90;;;;;;5018408;28;19936;-63
2022/09/27 10:38:29;;;;;;;;;;;21.40;99.90;;;;;;5003810;28;19929;-64
2022/09/27 10:41:22;;;;;;;;;;;21.40;99.90;;;;;;5022321;28;19936;-64
2022/09/27 10:43:54;;;;;;;;;;;21.40;99.90;;;;;;5023280;28;20320;-62
2022/09/27 10:46:30;;;;;;;;;;;21.40;99.90;;;;;;4978914;28;19929;-64
2022/09/27 10:49:19;;;;;;;;;;;21.40;99.90;;;;;;4994066;28;20419;-62
2022/09/27 10:51:50;;;;;;;;;;;21.50;99.90;;;;;;4993294;28;20282;-63
2022/09/27 10:54:21;;;;;;;;;;;21.50;99.90;;;;;;5003185;28;20354;-63
2022/09/27 10:56:54;;;;;;;;;;;21.50;99.90;;;;;;5001451;28;19934;-63
2022/09/27 10:59:22;;;;;;;;;;;21.50;99.90;;;;;;5015087;28;19933;-61
2022/09/27 11:01:50;;;;;;;;;;;21.50;99.90;;;;;;4998544;28;19933;-62
2022/09/27 11:04:32;;;;;;;;;;;21.60;99.90;;;;;;4993590;28;19932;-62
2022/09/27 11:07:14;;;;;;;;;;;21.50;99.90;;;;;;4993364;28;20424;-62
2022/09/27 11:09:48;;;;;;;;;;;21.50;99.90;;;;;;5014122;28;19929;-64
2022/09/27 11:12:19;;;;;;;;;;;21.50;99.90;;;;;;4995690;28;19929;-63
2022/09/27 11:14:51;;;;;;;;;;;21.50;99.90;;;;;;4997734;28;20142;-62
2022/09/27 11:17:23;;;;;;;;;;;21.50;99.90;;;;;;4985373;28;20397;-62
2022/09/27 11:20:04;;;;;;;;;;;21.50;99.90;;;;;;4986283;28;19929;-63
2022/09/27 11:22:50;;;;;;;;;;;21.50;99.90;;;;;;5008802;28;20317;-62
2022/09/27 11:25:38;;;;;;;;;;;21.50;99.90;;;;;;4998655;28;19926;-64
2022/09/27 11:28:37;;;;;;;;;;;21.50;99.90;;;;;;4993057;28;19945;-62
2022/09/27 11:31:27;;;;;;;;;;;21.50;99.90;;;;;;5000588;28;19956;-63
2022/09/27 11:34:05;;;;;;;;;;;21.40;99.90;;;;;;4991569;28;19937;-63
2022/09/27 11:36:55;;;;;;;;;;;21.40;99.90;;;;;;5018179;28;19933;-63
2022/09/27 11:39:23;;;;;;;;;;;21.40;99.90;;;;;;5017613;28;19956;-61
2022/09/27 11:42:13;;;;;;;;;;;21.40;99.90;;;;;;4994862;28;19952;-64
2022/09/27 11:44:42;;;;;;;;;;;21.30;99.90;;;;;;4998546;28;19930;-65
2022/09/27 11:47:36;;;;;;;;;;;21.40;99.90;;;;;;5018708;28;19929;-66
2022/09/27 11:50:10;;;;;;;;;;;21.40;99.90;;;;;;4994579;28;19925;-66
2022/09/27 11:52:57;;;;;;;;;;;21.40;99.90;;;;;;5024640;28;19925;-59
2022/09/27 11:55:45;;;;;;;;;;;21.40;99.90;;;;;;4987645;28;19928;-63
2022/09/27 11:58:17;;;;;;;;;;;21.40;99.90;;;;;;4998218;28;19925;-60
2022/09/27 12:00:51;;;;;;;;;;;21.30;99.90;;;;;;5001003;28;20004;-61
2022/09/27 12:03:19;;;;;;;;;;;21.30;99.90;;;;;;4999657;28;19929;-60
2022/09/27 12:05:49;;;;;;;;;;;21.20;99.90;;;;;;5024523;28;19929;-59
2022/09/27 12:08:44;;;;;;;;;;;21.30;99.90;;;;;;4991833;28;19940;-62
2022/09/27 12:11:32;;;;;;;;;;;21.30;99.90;;;;;;5000997;28;19936;-58
2022/09/27 12:14:00;;;;;;;;;;;21.20;99.90;;;;;;4990895;28;20428;-65
2022/09/27 12:16:29;;;;;;;;;;;21.30;99.90;;;;;;4993728;28;19925;-62
2022/09/27 12:18:57;;;;;;;;;;;21.30;99.90;;;;;;5019320;28;19936;-65
2022/09/27 12:21:46;;;;;;;;;;;21.30;99.90;;;;;;5018258;28;19933;-64
2022/09/27 12:24:19;;;;;;;;;;;21.30;99.90;;;;;;5019673;28;19961;-60
2022/09/27 12:27:15;;;;;;;;;;;21.30;99.90;;;;;;4999177;28;19952;-66
2022/09/27 12:29:44;;;;;;;;;;;21.30;99.90;;;;;;4992849;28;20316;-67
2022/09/27 12:32:30;;;;;;;;;;;21.40;99.90;;;;;;5004224;28;19930;-63
2022/09/27 12:35:02;;;;;;;;;;;21.20;99.90;;;;;;5018611;28;21288;-64
2022/09/27 12:37:52;;;;;;;;;;;20.50;99.90;;;;;;4996780;28;19925;-64
2022/09/27 12:40:23;;;;;;;;;;;20.10;99.90;;;;;;5000401;28;19952;-66
2022/09/27 12:43:11;;;;;;;;;;;20.10;99.90;;;;;;4992134;28;19930;-64
2022/09/27 12:45:59;;;;;;;;;;;20.40;99.90;;;;;;5004539;28;19930;-64
2022/09/27 12:48:45;;;;;;;;;;;20.70;99.90;;;;;;4986660;28;19929;-64
2022/09/27 12:51:14;;;;;;;;;;;20.90;99.90;;;;;;5021911;28;19926;-65
2022/09/27 12:53:43;;;;;;;;;;;21.10;99.90;;;;;;5020821;28;20325;-64
2022/09/27 12:56:22;;;;;;;;;;;21.20;99.90;;;;;;5010287;28;19929;-65
2022/09/27 12:59:01;;;;;;;;;;;21.30;99.90;;;;;;5021716;28;20306;-65
2022/09/27 13:01:33;;;;;;;;;;;21.40;99.90;;;;;;5011905;28;20467;-65
2022/09/27 13:04:09;;;;;;;;;;;21.50;99.90;;;;;;5005587;28;19943;-63
2022/09/27 13:06:51;;;;;;;;;;;21.60;99.90;;;;;;4997805;28;20385;-66
2022/09/27 13:09:21;;;;;;;;;;;21.50;99.90;;;;;;4999915;28;19932;-64
2022/09/27 13:12:01;;;;;;;;;;;21.60;99.90;;;;;;5016088;28;19930;-64
2022/09/27 13:14:32;;;;;;;;;;;21.60;99.90;;;;;;4999980;28;19937;-65
2022/09/27 13:17:00;;;;;;;;;;;21.60;99.90;;;;;;5001868;28;20424;-64
2022/09/27 13:19:44;;;;;;;;;;;21.60;99.90;;;;;;4993466;28;19934;-64
2022/09/27 13:22:31;;;;;;;;;;;21.60;99.90;;;;;;5002269;28;19927;-65
2022/09/27 13:25:46;;;;;;;;;;;21.60;99.90;;;;;;5001985;28;20331;-64
2022/09/27 13:28:37;;;;;;;;;;;21.60;99.90;;;;;;4996097;28;20433;-60
2022/09/27 13:31:12;;;;;;;;;;;21.60;99.90;;;;;;5018320;28;19952;-63
2022/09/27 13:33:45;;;;;;;;;;;21.60;99.90;;;;;;4992210;28;19934;-63
2022/09/27 13:36:25;;;;;;;;;;;21.60;99.90;;;;;;4999283;28;19925;-65
2022/09/27 13:39:00;;;;;;;;;;;21.60;99.90;;;;;;4995930;28;20010;-65
2022/09/27 13:41:32;;;;;;;;;;;21.60;99.90;;;;;;4987023;28;19930;-64
2022/09/27 13:44:25;;;;;;;;;;;21.60;99.90;;;;;;5000066;28;20250;-65
2022/09/27 13:47:10;;;;;;;;;;;21.60;99.90;;;;;;4988531;28;19929;-65
2022/09/27 13:49:42;;;;;;;;;;;21.60;99.90;;;;;;5012226;28;19936;-66
2022/09/27 13:52:22;;;;;;;;;;;21.60;99.90;;;;;;5005356;28;19929;-63
2022/09/27 13:55:26;;;;;;;;;;;21.60;99.90;;;;;;5010841;28;19937;-64
2022/09/27 13:58:02;;;;;;;;;;;21.50;99.90;;;;;;5015496;28;19941;-62
2022/09/27 14:03:34;;;;;;;;;;;21.50;99.90;;;;;;4980670;28;19930;-61
2022/09/27 14:06:19;;;;;;;;;;;21.50;99.90;;;;;;4963349;28;20230;-67
2022/09/27 14:08:56;;;;;;;;;;;21.50;99.90;;;;;;4966063;28;19930;-67
2022/09/27 14:11:43;;;;;;;;;;;21.50;99.90;;;;;;4973284;28;20403;-66
2022/09/27 14:14:17;;;;;;;;;;;21.50;99.90;;;;;;4960556;28;19933;-65
2022/09/27 14:16:53;;;;;;;;;;;21.50;99.90;;;;;;4950858;28;20322;-66
2022/09/27 14:19:22;;;;;;;;;;;21.40;99.90;;;;;;4965277;28;19930;-68
2022/09/27 14:21:50;;;;;;;;;;;21.30;99.90;;;;;;4953605;28;19930;-65
2022/09/27 14:24:25;;;;;;;;;;;21.30;99.90;;;;;;4948947;28;19952;-62
2022/09/27 14:27:12;;;;;;;;;;;21.20;99.90;;;;;;4957652;28;19938;-64
2022/09/27 14:29:43;;;;;;;;;;;21.20;99.90;;;;;;4962297;28;20306;-66
2022/09/27 14:32:15;;;;;;;;;;;21.20;99.90;;;;;;4960794;28;19930;-67
2022/09/27 14:37:22;;;;;;;;;;;21.10;99.90;;;;;;4958592;28;19942;-65
2022/09/27 14:38:00;;;;;;;;;;;21.10;99.90;;;;;;4964867;28;19930;-65
2022/09/27 14:40:58;;;;;;;;;;;21.10;99.90;;;;;;4948650;28;19935;-65
2022/09/27 14:43:26;;;;;;;;;;;21.10;99.90;;;;;;4942307;28;19931;-66
2022/09/27 14:45:58;;;;;;;;;;;21.10;99.90;;;;;;4936535;28;19931;-64
2022/09/27 14:48:31;;;;;;;;;;;21.00;99.90;;;;;;4964781;28;19930;-67
2022/09/27 14:51:02;;;;;;;;;;;21.10;99.90;;;;;;4947080;28;19926;-66
2022/09/27 14:53:34;;;;;;;;;;;21.10;99.90;;;;;;4961566;28;19934;-63
2022/09/27 14:56:02;;;;;;;;;;;21.10;99.90;;;;;;4949146;28;19927;-64
2022/09/27 14:58:29;;;;;;;;;;;21.20;99.90;;;;;;4945290;28;19931;-62
2022/09/27 15:01:18;;;;;;;;;;;21.20;99.90;;;;;;4945140;28;20033;-63
2022/09/27 15:03:47;;;;;;;;;;;21.30;99.90;;;;;;4941408;28;19931;-64
2022/09/27 15:06:15;;;;;;;;;;;21.40;99.90;;;;;;4939188;28;19942;-66
2022/09/27 15:08:46;;;;;;;;;;;21.50;99.90;;;;;;4951277;28;20398;-63
2022/09/27 15:11:14;;;;;;;;;;;21.60;99.90;;;;;;4944840;28;19930;-64
2022/09/27 15:13:42;;;;;;;;;;;21.70;99.90;;;;;;4949908;28;19935;-65
2022/09/27 15:16:15;;;;;;;;;;;21.80;99.90;;;;;;4951207;28;19930;-68